sensor_id;sensor_type;location;lat;lon;timestamp;temperature;humidity
39325;DHT22;25037;49.488;9.900;2023-01-08T00:01:12;5.40;73.30
39325;DHT22;25037;49.488;9.900;2023-01-08T00:03:39;5.40;73.40
39325;DHT22;25037;49.488;9.900;2023-01-08T00:06:10;5.40;73.50
39325;DHT22;25037;49.488;9.900;2023-01-08T00:08:36;5.40;73.60
39325;DHT22;25037;49.488;9.900;2023-01-08T00:11:03;5.40;73.50
39325;DHT22;25037;49.488;9.900;2023-01-08T00:13:30;5.40;73.50
39325;DHT22;25037;49.488;9.900;2023-01-08T00:16:04;5.30;73.50
39325;DHT22;25037;49.488;9.900;2023-01-08T00:18:32;5.40;73.50
39325;DHT22;25037;49.488;9.900;2023-01-08T00:20:59;5.40;73.50
39325;DHT22;25037;49.488;9.900;2023-01-08T00:23:26;5.40;73.40
39325;DHT22;25037;49.488;9.900;2023-01-08T00:25:53;5.30;73.40
39325;DHT22;25037;49.488;9.900;2023-01-08T00:28:19;5.30;73.50
39325;DHT22;25037;49.488;9.900;2023-01-08T00:30:47;5.30;73.50
39325;DHT22;25037;49.488;9.900;2023-01-08T00:33:14;5.30;73.60
39325;DHT22;25037;49.488;9.900;2023-01-08T00:35:41;5.30;73.70
39325;DHT22;25037;49.488;9.900;2023-01-08T00:38:08;5.30;73.70
39325;DHT22;25037;49.488;9.900;2023-01-08T00:40:35;5.30;73.80
39325;DHT22;25037;49.488;9.900;2023-01-08T00:43:02;5.40;73.80
39325;DHT22;25037;49.488;9.900;2023-01-08T00:45:29;5.40;73.80
39325;DHT22;25037;49.488;9.900;2023-01-08T00:47:56;5.50;73.80
39325;DHT22;25037;49.488;9.900;2023-01-08T00:50:23;5.50;73.80
39325;DHT22;25037;49.488;9.900;2023-01-08T00:52:50;5.50;73.80
39325;DHT22;25037;49.488;9.900;2023-01-08T00:55:16;5.50;73.90
39325;DHT22;25037;49.488;9.900;2023-01-08T00:57:43;5.60;73.90
39325;DHT22;25037;49.488;9.900;2023-01-08T01:00:14;5.70;73.80
39325;DHT22;25037;49.488;9.900;2023-01-08T01:02:41;5.70;73.90
39325;DHT22;25037;49.488;9.900;2023-01-08T01:05:09;5.80;73.80
39325;DHT22;25037;49.488;9.900;2023-01-08T01:07:36;5.80;73.70
39325;DHT22;25037;49.488;9.900;2023-01-08T01:10:03;5.80;73.70
39325;DHT22;25037;49.488;9.900;2023-01-08T01:12:29;5.80;73.70
39325;DHT22;25037;49.488;9.900;2023-01-08T01:14:56;5.80;73.60
39325;DHT22;25037;49.488;9.900;2023-01-08T01:17:23;5.80;73.60
39325;DHT22;25037;49.488;9.900;2023-01-08T01:19:49;5.80;73.60
39325;DHT22;25037;49.488;9.900;2023-01-08T01:22:16;5.80;73.50
39325;DHT22;25037;49.488;9.900;2023-01-08T01:24:43;5.80;73.50
39325;DHT22;25037;49.488;9.900;2023-01-08T01:27:09;5.80;73.50
39325;DHT22;25037;49.488;9.900;2023-01-08T01:29:36;5.80;73.50
39325;DHT22;25037;49.488;9.900;2023-01-08T01:32:03;5.70;73.60
39325;DHT22;25037;49.488;9.900;2023-01-08T01:34:31;5.70;73.60
39325;DHT22;25037;49.488;9.900;2023-01-08T01:36:58;5.70;73.60
39325;DHT22;25037;49.488;9.900;2023-01-08T01:39:24;5.60;73.70
39325;DHT22;25037;49.488;9.900;2023-01-08T01:41:51;5.60;73.70
39325;DHT22;25037;49.488;9.900;2023-01-08T01:44:41;5.60;73.80
39325;DHT22;25037;49.488;9.900;2023-01-08T01:47:22;5.60;73.80
39325;DHT22;25037;49.488;9.900;2023-01-08T01:50:11;5.60;73.90
39325;DHT22;25037;49.488;9.900;2023-01-08T01:52:54;5.60;73.80
39325;DHT22;25037;49.488;9.900;2023-01-08T01:55:22;5.60;73.80
39325;DHT22;25037;49.488;9.900;2023-01-08T01:58:04;5.60;73.70
39325;DHT22;25037;49.488;9.900;2023-01-08T02:00:32;5.60;73.80
39325;DHT22;25037;49.488;9.900;2023-01-08T02:03:00;5.60;73.70
39325;DHT22;25037;49.488;9.900;2023-01-08T02:05:37;5.60;73.60
39325;DHT22;25037;49.488;9.900;2023-01-08T02:08:10;5.60;73.60
39325;DHT22;25037;49.488;9.900;2023-01-08T02:10:57;5.50;73.60
39325;DHT22;25037;49.488;9.900;2023-01-08T02:13:29;5.60;73.70
39325;DHT22;25037;49.488;9.900;2023-01-08T02:15:58;5.50;73.80
39325;DHT22;25037;49.488;9.900;2023-01-08T02:21:10;5.50;73.90
39325;DHT22;25037;49.488;9.900;2023-01-08T02:23:52;5.50;73.90
39325;DHT22;25037;49.488;9.900;2023-01-08T02:26:25;5.50;74.00
39325;DHT22;25037;49.488;9.900;2023-01-08T02:31:28;5.60;74.00
39325;DHT22;25037;49.488;9.900;2023-01-08T02:33:55;5.60;74.00
39325;DHT22;25037;49.488;9.900;2023-01-08T02:36:47;5.70;74.00
39325;DHT22;25037;49.488;9.900;2023-01-08T02:47:54;5.70;73.90
39325;DHT22;25037;49.488;9.900;2023-01-08T02:50:33;5.70;74.00
39325;DHT22;25037;49.488;9.900;2023-01-08T02:53:18;5.70;74.00
39325;DHT22;25037;49.488;9.900;2023-01-08T02:55:57;5.80;74.00
39325;DHT22;25037;49.488;9.900;2023-01-08T02:58:27;5.80;74.00
39325;DHT22;25037;49.488;9.900;2023-01-08T03:00:55;5.80;73.90
39325;DHT22;25037;49.488;9.900;2023-01-08T03:03:25;5.80;73.90
39325;DHT22;25037;49.488;9.900;2023-01-08T03:06:00;5.80;73.90
39325;DHT22;25037;49.488;9.900;2023-01-08T03:08:28;5.80;74.00
39325;DHT22;25037;49.488;9.900;2023-01-08T03:11:03;5.90;73.90
39325;DHT22;25037;49.488;9.900;2023-01-08T03:13:37;5.80;73.90
39325;DHT22;25037;49.488;9.900;2023-01-08T03:16:09;5.90;73.90
39325;DHT22;25037;49.488;9.900;2023-01-08T03:18:41;5.90;73.90
39325;DHT22;25037;49.488;9.900;2023-01-08T03:21:09;5.90;73.90
39325;DHT22;25037;49.488;9.900;2023-01-08T03:23:38;5.90;73.90
39325;DHT22;25037;49.488;9.900;2023-01-08T03:26:06;5.90;74.00
39325;DHT22;25037;49.488;9.900;2023-01-08T03:28:37;6.00;74.00
39325;DHT22;25037;49.488;9.900;2023-01-08T03:31:05;6.00;74.00
39325;DHT22;25037;49.488;9.900;2023-01-08T03:33:33;6.00;74.00
39325;DHT22;25037;49.488;9.900;2023-01-08T03:36:02;6.00;74.00
39325;DHT22;25037;49.488;9.900;2023-01-08T03:38:33;6.00;74.00
39325;DHT22;25037;49.488;9.900;2023-01-08T03:41:06;6.10;74.00
39325;DHT22;25037;49.488;9.900;2023-01-08T03:43:35;6.20;74.00
39325;DHT22;25037;49.488;9.900;2023-01-08T03:46:03;6.20;73.90
39325;DHT22;25037;49.488;9.900;2023-01-08T03:48:34;6.20;73.90
39325;DHT22;25037;49.488;9.900;2023-01-08T03:51:01;6.30;73.90
39325;DHT22;25037;49.488;9.900;2023-01-08T03:53:28;6.30;73.90
39325;DHT22;25037;49.488;9.900;2023-01-08T03:55:56;6.40;73.80
39325;DHT22;25037;49.488;9.900;2023-01-08T03:58:23;6.40;73.80
39325;DHT22;25037;49.488;9.900;2023-01-08T04:00:50;6.40;73.70
39325;DHT22;25037;49.488;9.900;2023-01-08T04:03:17;6.50;73.60
39325;DHT22;25037;49.488;9.900;2023-01-08T04:05:43;6.50;73.60
39325;DHT22;25037;49.488;9.900;2023-01-08T04:08:10;6.60;73.50
39325;DHT22;25037;49.488;9.900;2023-01-08T04:10:37;6.60;73.40
39325;DHT22;25037;49.488;9.900;2023-01-08T04:13:03;6.60;73.40
39325;DHT22;25037;49.488;9.900;2023-01-08T04:15:30;6.70;73.40
39325;DHT22;25037;49.488;9.900;2023-01-08T04:17:57;6.70;73.40
39325;DHT22;25037;49.488;9.900;2023-01-08T04:20:23;6.70;73.40
39325;DHT22;25037;49.488;9.900;2023-01-08T04:22:50;6.70;73.40
39325;DHT22;25037;49.488;9.900;2023-01-08T04:25:16;6.70;73.30
39325;DHT22;25037;49.488;9.900;2023-01-08T04:27:44;6.70;73.30
39325;DHT22;25037;49.488;9.900;2023-01-08T04:30:11;6.70;73.30
39325;DHT22;25037;49.488;9.900;2023-01-08T04:32:38;6.80;73.30
39325;DHT22;25037;49.488;9.900;2023-01-08T04:35:05;6.80;73.30
39325;DHT22;25037;49.488;9.900;2023-01-08T04:37:31;6.80;73.40
39325;DHT22;25037;49.488;9.900;2023-01-08T04:39:58;6.80;73.40
39325;DHT22;25037;49.488;9.900;2023-01-08T04:42:25;6.80;73.40
39325;DHT22;25037;49.488;9.900;2023-01-08T04:44:51;6.80;73.30
39325;DHT22;25037;49.488;9.900;2023-01-08T04:47:18;6.90;73.40
39325;DHT22;25037;49.488;9.900;2023-01-08T04:49:44;6.90;73.40
39325;DHT22;25037;49.488;9.900;2023-01-08T04:52:11;7.00;73.40
39325;DHT22;25037;49.488;9.900;2023-01-08T04:54:38;7.00;73.40
39325;DHT22;25037;49.488;9.900;2023-01-08T04:57:07;7.00;73.40
39325;DHT22;25037;49.488;9.900;2023-01-08T04:59:33;7.00;73.40
39325;DHT22;25037;49.488;9.900;2023-01-08T05:02:00;7.10;73.40
39325;DHT22;25037;49.488;9.900;2023-01-08T05:04:27;7.10;73.40
39325;DHT22;25037;49.488;9.900;2023-01-08T05:06:54;7.10;73.40
39325;DHT22;25037;49.488;9.900;2023-01-08T05:09:21;7.20;73.40
39325;DHT22;25037;49.488;9.900;2023-01-08T05:11:47;7.20;73.40
39325;DHT22;25037;49.488;9.900;2023-01-08T05:14:14;7.20;73.40
39325;DHT22;25037;49.488;9.900;2023-01-08T05:16:41;7.20;73.50
39325;DHT22;25037;49.488;9.900;2023-01-08T05:19:08;7.20;73.40
39325;DHT22;25037;49.488;9.900;2023-01-08T05:21:37;7.20;73.30
39325;DHT22;25037;49.488;9.900;2023-01-08T05:24:04;7.30;73.40
39325;DHT22;25037;49.488;9.900;2023-01-08T05:26:31;7.30;73.40
39325;DHT22;25037;49.488;9.900;2023-01-08T05:28:57;7.30;73.40
39325;DHT22;25037;49.488;9.900;2023-01-08T05:31:24;7.30;73.30
39325;DHT22;25037;49.488;9.900;2023-01-08T05:33:51;7.40;73.30
39325;DHT22;25037;49.488;9.900;2023-01-08T05:36:18;7.40;73.30
39325;DHT22;25037;49.488;9.900;2023-01-08T05:38:44;7.50;73.30
39325;DHT22;25037;49.488;9.900;2023-01-08T05:41:11;7.50;73.30
39325;DHT22;25037;49.488;9.900;2023-01-08T05:43:38;7.50;73.20
39325;DHT22;25037;49.488;9.900;2023-01-08T05:46:04;7.50;73.20
39325;DHT22;25037;49.488;9.900;2023-01-08T05:48:33;7.60;73.20
39325;DHT22;25037;49.488;9.900;2023-01-08T05:51:01;7.60;73.20
39325;DHT22;25037;49.488;9.900;2023-01-08T05:53:27;7.70;73.20
39325;DHT22;25037;49.488;9.900;2023-01-08T05:56:06;7.70;73.30
39325;DHT22;25037;49.488;9.900;2023-01-08T05:58:34;7.80;73.30
39325;DHT22;25037;49.488;9.900;2023-01-08T06:01:05;7.80;73.30
39325;DHT22;25037;49.488;9.900;2023-01-08T06:03:31;7.80;73.30
39325;DHT22;25037;49.488;9.900;2023-01-08T06:06:02;7.80;73.30
39325;DHT22;25037;49.488;9.900;2023-01-08T06:08:30;7.80;73.30
39325;DHT22;25037;49.488;9.900;2023-01-08T06:11:01;7.80;73.30
39325;DHT22;25037;49.488;9.900;2023-01-08T06:13:28;7.80;73.30
39325;DHT22;25037;49.488;9.900;2023-01-08T06:15:57;7.90;73.30
39325;DHT22;25037;49.488;9.900;2023-01-08T06:18:26;7.90;73.20
39325;DHT22;25037;49.488;9.900;2023-01-08T06:20:53;7.90;73.30
39325;DHT22;25037;49.488;9.900;2023-01-08T06:23:20;7.90;73.30
39325;DHT22;25037;49.488;9.900;2023-01-08T06:25:53;8.00;73.40
39325;DHT22;25037;49.488;9.900;2023-01-08T06:28:20;7.90;73.50
39325;DHT22;25037;49.488;9.900;2023-01-08T06:30:47;7.90;73.40
39325;DHT22;25037;49.488;9.900;2023-01-08T06:33:14;8.00;73.40
39325;DHT22;25037;49.488;9.900;2023-01-08T06:35:41;7.90;73.30
39325;DHT22;25037;49.488;9.900;2023-01-08T06:38:07;8.00;73.30
39325;DHT22;25037;49.488;9.900;2023-01-08T06:40:34;8.00;73.30
39325;DHT22;25037;49.488;9.900;2023-01-08T06:43:02;7.90;73.40
39325;DHT22;25037;49.488;9.900;2023-01-08T06:45:29;7.90;73.40
39325;DHT22;25037;49.488;9.900;2023-01-08T06:48:00;7.90;73.40
39325;DHT22;25037;49.488;9.900;2023-01-08T06:50:28;7.90;73.50
39325;DHT22;25037;49.488;9.900;2023-01-08T06:52:55;7.90;73.50
39325;DHT22;25037;49.488;9.900;2023-01-08T06:55:23;7.80;73.50
39325;DHT22;25037;49.488;9.900;2023-01-08T06:57:54;7.80;73.50
39325;DHT22;25037;49.488;9.900;2023-01-08T07:00:21;7.80;73.60
39325;DHT22;25037;49.488;9.900;2023-01-08T07:02:49;7.80;73.60
39325;DHT22;25037;49.488;9.900;2023-01-08T07:05:17;7.80;73.60
39325;DHT22;25037;49.488;9.900;2023-01-08T07:07:44;7.80;73.70
39325;DHT22;25037;49.488;9.900;2023-01-08T07:10:11;7.80;73.70
39325;DHT22;25037;49.488;9.900;2023-01-08T07:12:37;7.90;73.70
39325;DHT22;25037;49.488;9.900;2023-01-08T07:15:04;7.90;73.70
39325;DHT22;25037;49.488;9.900;2023-01-08T07:17:32;7.90;73.80
39325;DHT22;25037;49.488;9.900;2023-01-08T07:19:59;8.00;73.80
39325;DHT22;25037;49.488;9.900;2023-01-08T07:22:26;8.00;73.80
39325;DHT22;25037;49.488;9.900;2023-01-08T07:24:54;8.00;73.80
39325;DHT22;25037;49.488;9.900;2023-01-08T07:27:20;8.00;73.80
39325;DHT22;25037;49.488;9.900;2023-01-08T07:29:47;8.00;73.90
39325;DHT22;25037;49.488;9.900;2023-01-08T07:32:14;8.10;73.90
39325;DHT22;25037;49.488;9.900;2023-01-08T07:34:40;8.10;73.90
39325;DHT22;25037;49.488;9.900;2023-01-08T07:37:07;8.20;73.90
39325;DHT22;25037;49.488;9.900;2023-01-08T07:39:33;8.20;74.00
39325;DHT22;25037;49.488;9.900;2023-01-08T07:42:00;8.20;74.00
39325;DHT22;25037;49.488;9.900;2023-01-08T07:44:27;8.30;74.00
39325;DHT22;25037;49.488;9.900;2023-01-08T07:46:54;8.30;74.00
39325;DHT22;25037;49.488;9.900;2023-01-08T07:49:20;8.40;74.10
39325;DHT22;25037;49.488;9.900;2023-01-08T07:51:50;8.50;74.20
39325;DHT22;25037;49.488;9.900;2023-01-08T07:54:17;8.50;74.20
39325;DHT22;25037;49.488;9.900;2023-01-08T07:56:43;8.60;74.20
39325;DHT22;25037;49.488;9.900;2023-01-08T07:59:10;8.70;74.30
39325;DHT22;25037;49.488;9.900;2023-01-08T08:01:36;8.80;74.40
39325;DHT22;25037;49.488;9.900;2023-01-08T08:04:03;8.90;74.50
39325;DHT22;25037;49.488;9.900;2023-01-08T08:06:30;9.00;74.50
39325;DHT22;25037;49.488;9.900;2023-01-08T08:08:57;9.10;74.60
39325;DHT22;25037;49.488;9.900;2023-01-08T08:11:25;9.30;74.60
39325;DHT22;25037;49.488;9.900;2023-01-08T08:13:51;9.30;74.60
39325;DHT22;25037;49.488;9.900;2023-01-08T08:16:22;9.40;74.60
39325;DHT22;25037;49.488;9.900;2023-01-08T08:18:48;9.50;74.60
39325;DHT22;25037;49.488;9.900;2023-01-08T08:21:15;9.60;74.60
39325;DHT22;25037;49.488;9.900;2023-01-08T08:23:41;9.70;74.60
39325;DHT22;25037;49.488;9.900;2023-01-08T08:26:08;9.70;74.60
39325;DHT22;25037;49.488;9.900;2023-01-08T08:28:35;9.80;74.60
39325;DHT22;25037;49.488;9.900;2023-01-08T08:31:01;9.90;74.70
39325;DHT22;25037;49.488;9.900;2023-01-08T08:33:28;9.90;74.70
39325;DHT22;25037;49.488;9.900;2023-01-08T08:35:55;10.10;74.60
39325;DHT22;25037;49.488;9.900;2023-01-08T08:38:21;10.20;74.70
39325;DHT22;25037;49.488;9.900;2023-01-08T08:40:49;10.20;74.60
39325;DHT22;25037;49.488;9.900;2023-01-08T08:43:16;10.30;74.60
39325;DHT22;25037;49.488;9.900;2023-01-08T08:45:43;10.40;74.70
39325;DHT22;25037;49.488;9.900;2023-01-08T08:48:10;10.40;74.60
39325;DHT22;25037;49.488;9.900;2023-01-08T08:50:37;10.40;74.60
39325;DHT22;25037;49.488;9.900;2023-01-08T08:53:05;10.50;74.60
39325;DHT22;25037;49.488;9.900;2023-01-08T08:55:32;10.50;74.60
39325;DHT22;25037;49.488;9.900;2023-01-08T08:58:08;10.60;74.60
39325;DHT22;25037;49.488;9.900;2023-01-08T09:00:37;10.60;74.70
39325;DHT22;25037;49.488;9.900;2023-01-08T09:03:04;10.60;74.60
39325;DHT22;25037;49.488;9.900;2023-01-08T09:05:34;10.60;74.60
39325;DHT22;25037;49.488;9.900;2023-01-08T09:08:01;10.70;74.50
39325;DHT22;25037;49.488;9.900;2023-01-08T09:10:28;10.70;74.40
39325;DHT22;25037;49.488;9.900;2023-01-08T09:12:54;10.70;74.40
39325;DHT22;25037;49.488;9.900;2023-01-08T09:15:21;10.80;74.30
39325;DHT22;25037;49.488;9.900;2023-01-08T09:17:55;10.80;74.30
39325;DHT22;25037;49.488;9.900;2023-01-08T09:20:23;10.90;74.20
39325;DHT22;25037;49.488;9.900;2023-01-08T09:22:50;10.90;74.20
39325;DHT22;25037;49.488;9.900;2023-01-08T09:25:17;11.00;74.10
39325;DHT22;25037;49.488;9.900;2023-01-08T09:27:44;11.00;74.00
39325;DHT22;25037;49.488;9.900;2023-01-08T09:30:11;11.00;73.90
39325;DHT22;25037;49.488;9.900;2023-01-08T09:32:37;11.10;73.90
39325;DHT22;25037;49.488;9.900;2023-01-08T09:35:05;11.10;73.90
39325;DHT22;25037;49.488;9.900;2023-01-08T09:37:31;11.10;73.80
39325;DHT22;25037;49.488;9.900;2023-01-08T09:39:58;11.20;73.80
39325;DHT22;25037;49.488;9.900;2023-01-08T09:42:29;11.20;73.80
39325;DHT22;25037;49.488;9.900;2023-01-08T09:44:57;11.20;73.80
39325;DHT22;25037;49.488;9.900;2023-01-08T09:47:28;11.30;73.70
39325;DHT22;25037;49.488;9.900;2023-01-08T09:50:06;11.30;73.70
39325;DHT22;25037;49.488;9.900;2023-01-08T09:52:37;11.30;73.70
39325;DHT22;25037;49.488;9.900;2023-01-08T09:55:14;11.30;73.60
39325;DHT22;25037;49.488;9.900;2023-01-08T09:57:43;11.40;73.50
39325;DHT22;25037;49.488;9.900;2023-01-08T10:00:13;11.40;73.50
39325;DHT22;25037;49.488;9.900;2023-01-08T10:02:40;11.40;73.40
39325;DHT22;25037;49.488;9.900;2023-01-08T10:05:15;11.50;73.30
39325;DHT22;25037;49.488;9.900;2023-01-08T10:07:42;11.50;73.20
39325;DHT22;25037;49.488;9.900;2023-01-08T10:10:22;11.50;73.10
39325;DHT22;25037;49.488;9.900;2023-01-08T10:12:49;11.60;72.90
39325;DHT22;25037;49.488;9.900;2023-01-08T10:15:19;11.60;72.80
39325;DHT22;25037;49.488;9.900;2023-01-08T10:18:02;11.60;72.80
39325;DHT22;25037;49.488;9.900;2023-01-08T10:20:29;11.60;72.80
39325;DHT22;25037;49.488;9.900;2023-01-08T10:23:11;11.70;72.80
39325;DHT22;25037;49.488;9.900;2023-01-08T10:28:31;11.70;72.60
39325;DHT22;25037;49.488;9.900;2023-01-08T10:31:14;11.70;72.50
39325;DHT22;25037;49.488;9.900;2023-01-08T10:33:44;11.70;72.50
39325;DHT22;25037;49.488;9.900;2023-01-08T10:36:15;11.70;72.40
39325;DHT22;25037;49.488;9.900;2023-01-08T10:39:02;11.70;72.40
39325;DHT22;25037;49.488;9.900;2023-01-08T10:41:29;11.80;72.30
39325;DHT22;25037;49.488;9.900;2023-01-08T10:44:03;11.70;72.30
39325;DHT22;25037;49.488;9.900;2023-01-08T10:46:35;11.80;72.20
39325;DHT22;25037;49.488;9.900;2023-01-08T10:49:04;11.80;72.10
39325;DHT22;25037;49.488;9.900;2023-01-08T10:51:32;11.90;71.90
39325;DHT22;25037;49.488;9.900;2023-01-08T10:54:12;11.80;71.80
39325;DHT22;25037;49.488;9.900;2023-01-08T10:56:43;11.80;71.70
39325;DHT22;25037;49.488;9.900;2023-01-08T10:59:20;11.80;71.40
39325;DHT22;25037;49.488;9.900;2023-01-08T11:01:48;11.90;71.30
39325;DHT22;25037;49.488;9.900;2023-01-08T11:04:28;11.80;71.30
39325;DHT22;25037;49.488;9.900;2023-01-08T11:06:55;11.80;71.20
39325;DHT22;25037;49.488;9.900;2023-01-08T11:09:31;11.80;71.20
39325;DHT22;25037;49.488;9.900;2023-01-08T11:11:58;11.80;71.20
39325;DHT22;25037;49.488;9.900;2023-01-08T11:14:29;11.90;71.10
39325;DHT22;25037;49.488;9.900;2023-01-08T11:16:56;11.80;71.00
39325;DHT22;25037;49.488;9.900;2023-01-08T11:19:29;11.90;70.90
39325;DHT22;25037;49.488;9.900;2023-01-08T11:22:04;12.00;70.80
39325;DHT22;25037;49.488;9.900;2023-01-08T11:24:34;12.00;70.80
39325;DHT22;25037;49.488;9.900;2023-01-08T11:32:46;12.00;70.70
39325;DHT22;25037;49.488;9.900;2023-01-08T11:35:16;12.00;70.70
39325;DHT22;25037;49.488;9.900;2023-01-08T11:37:51;11.90;70.80
39325;DHT22;25037;49.488;9.900;2023-01-08T11:45:51;11.90;70.80
39325;DHT22;25037;49.488;9.900;2023-01-08T11:48:34;11.90;70.70
39325;DHT22;25037;49.488;9.900;2023-01-08T11:53:45;12.10;70.50
39325;DHT22;25037;49.488;9.900;2023-01-08T12:02:06;12.30;70.00
39325;DHT22;25037;49.488;9.900;2023-01-08T12:04:55;12.30;69.90
39325;DHT22;25037;49.488;9.900;2023-01-08T12:07:47;12.30;69.80
39325;DHT22;25037;49.488;9.900;2023-01-08T12:10:37;12.40;69.60
39325;DHT22;25037;49.488;9.900;2023-01-08T12:13:15;12.50;69.40
39325;DHT22;25037;49.488;9.900;2023-01-08T12:16:15;12.60;69.20
39325;DHT22;25037;49.488;9.900;2023-01-08T12:18:56;12.70;69.00
39325;DHT22;25037;49.488;9.900;2023-01-08T12:32:41;13.00;68.30
39325;DHT22;25037;49.488;9.900;2023-01-08T12:35:23;13.00;68.40
39325;DHT22;25037;49.488;9.900;2023-01-08T12:37:56;13.00;68.30
39325;DHT22;25037;49.488;9.900;2023-01-08T12:40:32;13.00;68.30
39325;DHT22;25037;49.488;9.900;2023-01-08T12:43:03;13.00;68.10
39325;DHT22;25037;49.488;9.900;2023-01-08T12:45:38;13.00;68.00
39325;DHT22;25037;49.488;9.900;2023-01-08T12:48:16;13.00;68.00
39325;DHT22;25037;49.488;9.900;2023-01-08T12:51:12;13.10;67.80
39325;DHT22;25037;49.488;9.900;2023-01-08T12:56:19;13.10;67.70
39325;DHT22;25037;49.488;9.900;2023-01-08T12:58:59;13.10;67.70
39325;DHT22;25037;49.488;9.900;2023-01-08T13:04:23;13.10;67.60
39325;DHT22;25037;49.488;9.900;2023-01-08T13:06:59;13.10;67.70
39325;DHT22;25037;49.488;9.900;2023-01-08T13:09:27;13.10;67.50
39325;DHT22;25037;49.488;9.900;2023-01-08T13:11:55;13.10;67.50
39325;DHT22;25037;49.488;9.900;2023-01-08T13:14:22;13.10;67.60
39325;DHT22;25037;49.488;9.900;2023-01-08T13:17:01;13.20;67.40
39325;DHT22;25037;49.488;9.900;2023-01-08T13:19:40;13.30;67.40
39325;DHT22;25037;49.488;9.900;2023-01-08T13:22:31;13.30;67.40
39325;DHT22;25037;49.488;9.900;2023-01-08T13:27:40;13.30;67.10
39325;DHT22;25037;49.488;9.900;2023-01-08T13:32:59;13.20;67.20
39325;DHT22;25037;49.488;9.900;2023-01-08T13:35:28;13.10;67.40
39325;DHT22;25037;49.488;9.900;2023-01-08T13:43:30;13.00;67.30
39325;DHT22;25037;49.488;9.900;2023-01-08T13:51:38;12.80;67.50
39325;DHT22;25037;49.488;9.900;2023-01-08T13:56:44;12.80;67.60
39325;DHT22;25037;49.488;9.900;2023-01-08T14:01:54;12.80;67.80
39325;DHT22;25037;49.488;9.900;2023-01-08T14:04:22;12.70;67.80
39325;DHT22;25037;49.488;9.900;2023-01-08T14:06:50;12.70;67.80
39325;DHT22;25037;49.488;9.900;2023-01-08T14:09:22;12.70;67.70
39325;DHT22;25037;49.488;9.900;2023-01-08T14:11:52;12.70;67.70
39325;DHT22;25037;49.488;9.900;2023-01-08T14:14:21;12.70;67.80
39325;DHT22;25037;49.488;9.900;2023-01-08T14:16:49;12.70;67.80
39325;DHT22;25037;49.488;9.900;2023-01-08T14:19:19;12.60;67.80
39325;DHT22;25037;49.488;9.900;2023-01-08T14:21:49;12.50;67.80
39325;DHT22;25037;49.488;9.900;2023-01-08T14:24:18;12.60;67.80
39325;DHT22;25037;49.488;9.900;2023-01-08T14:26:54;12.60;67.80
39325;DHT22;25037;49.488;9.900;2023-01-08T14:29:24;12.60;67.70
39325;DHT22;25037;49.488;9.900;2023-01-08T14:31:53;12.60;67.70
39325;DHT22;25037;49.488;9.900;2023-01-08T14:34:23;12.70;67.60
39325;DHT22;25037;49.488;9.900;2023-01-08T14:36:53;12.70;67.60
39325;DHT22;25037;49.488;9.900;2023-01-08T14:42:01;12.70;67.50
39325;DHT22;25037;49.488;9.900;2023-01-08T14:45:00;12.70;67.50
39325;DHT22;25037;49.488;9.900;2023-01-08T14:47:31;12.70;67.40
39325;DHT22;25037;49.488;9.900;2023-01-08T14:49:59;12.60;67.50
39325;DHT22;25037;49.488;9.900;2023-01-08T14:52:26;12.50;67.60
39325;DHT22;25037;49.488;9.900;2023-01-08T14:54:55;12.50;67.60
39325;DHT22;25037;49.488;9.900;2023-01-08T14:57:26;12.50;67.60
39325;DHT22;25037;49.488;9.900;2023-01-08T14:59:57;12.50;67.60
39325;DHT22;25037;49.488;9.900;2023-01-08T15:02:29;12.50;67.60
39325;DHT22;25037;49.488;9.900;2023-01-08T15:05:01;12.40;67.60
39325;DHT22;25037;49.488;9.900;2023-01-08T15:07:28;12.40;67.70
39325;DHT22;25037;49.488;9.900;2023-01-08T15:09:57;12.40;67.80
39325;DHT22;25037;49.488;9.900;2023-01-08T15:12:26;12.30;67.80
39325;DHT22;25037;49.488;9.900;2023-01-08T15:14:53;12.30;67.80
39325;DHT22;25037;49.488;9.900;2023-01-08T15:17:23;12.30;67.80
39325;DHT22;25037;49.488;9.900;2023-01-08T15:19:55;12.30;67.80
39325;DHT22;25037;49.488;9.900;2023-01-08T15:22:25;12.30;67.80
39325;DHT22;25037;49.488;9.900;2023-01-08T15:27:24;12.20;67.90
39325;DHT22;25037;49.488;9.900;2023-01-08T15:29:52;12.20;67.90
39325;DHT22;25037;49.488;9.900;2023-01-08T15:32:28;12.10;67.90
39325;DHT22;25037;49.488;9.900;2023-01-08T15:34:56;12.10;67.90
39325;DHT22;25037;49.488;9.900;2023-01-08T15:37:23;12.00;68.00
39325;DHT22;25037;49.488;9.900;2023-01-08T15:39:50;12.00;68.10
39325;DHT22;25037;49.488;9.900;2023-01-08T15:42:17;11.90;68.10
39325;DHT22;25037;49.488;9.900;2023-01-08T15:45:04;11.90;68.20
39325;DHT22;25037;49.488;9.900;2023-01-08T15:47:31;11.90;68.20
39325;DHT22;25037;49.488;9.900;2023-01-08T15:49:58;11.90;68.30
39325;DHT22;25037;49.488;9.900;2023-01-08T15:52:26;11.90;68.30
39325;DHT22;25037;49.488;9.900;2023-01-08T15:54:59;11.80;68.30
39325;DHT22;25037;49.488;9.900;2023-01-08T15:57:27;11.80;68.30
39325;DHT22;25037;49.488;9.900;2023-01-08T15:59:56;11.80;68.30
39325;DHT22;25037;49.488;9.900;2023-01-08T16:02:23;11.80;68.20
39325;DHT22;25037;49.488;9.900;2023-01-08T16:04:51;11.80;68.20
39325;DHT22;25037;49.488;9.900;2023-01-08T16:07:18;11.80;68.20
39325;DHT22;25037;49.488;9.900;2023-01-08T16:09:45;11.80;68.20
39325;DHT22;25037;49.488;9.900;2023-01-08T16:12:11;11.80;68.20
39325;DHT22;25037;49.488;9.900;2023-01-08T16:14:39;11.80;68.20
39325;DHT22;25037;49.488;9.900;2023-01-08T16:17:06;11.70;68.30
39325;DHT22;25037;49.488;9.900;2023-01-08T16:19:33;11.70;68.40
39325;DHT22;25037;49.488;9.900;2023-01-08T16:21:59;11.70;68.50
39325;DHT22;25037;49.488;9.900;2023-01-08T16:24:26;11.70;68.50
39325;DHT22;25037;49.488;9.900;2023-01-08T16:26:53;11.70;68.50
39325;DHT22;25037;49.488;9.900;2023-01-08T16:29:19;11.60;68.50
39325;DHT22;25037;49.488;9.900;2023-01-08T16:31:47;11.70;68.50
39325;DHT22;25037;49.488;9.900;2023-01-08T16:34:14;11.60;68.50
39325;DHT22;25037;49.488;9.900;2023-01-08T16:36:41;11.60;68.50
39325;DHT22;25037;49.488;9.900;2023-01-08T16:39:08;11.60;68.60
39325;DHT22;25037;49.488;9.900;2023-01-08T16:41:34;11.50;68.70
39325;DHT22;25037;49.488;9.900;2023-01-08T16:44:02;11.50;68.80
39325;DHT22;25037;49.488;9.900;2023-01-08T16:46:29;11.40;68.90
39325;DHT22;25037;49.488;9.900;2023-01-08T16:48:55;11.40;69.10
39325;DHT22;25037;49.488;9.900;2023-01-08T16:51:22;11.40;69.20
39325;DHT22;25037;49.488;9.900;2023-01-08T16:53:50;11.40;69.30
39325;DHT22;25037;49.488;9.900;2023-01-08T16:56:17;11.30;69.30
39325;DHT22;25037;49.488;9.900;2023-01-08T16:58:43;11.30;69.30
39325;DHT22;25037;49.488;9.900;2023-01-08T17:01:10;11.30;69.40
39325;DHT22;25037;49.488;9.900;2023-01-08T17:03:38;11.30;69.40
39325;DHT22;25037;49.488;9.900;2023-01-08T17:06:06;11.20;69.40
39325;DHT22;25037;49.488;9.900;2023-01-08T17:08:33;11.30;69.50
39325;DHT22;25037;49.488;9.900;2023-01-08T17:11:07;11.30;69.40
39325;DHT22;25037;49.488;9.900;2023-01-08T17:13:33;11.20;69.50
39325;DHT22;25037;49.488;9.900;2023-01-08T17:16:04;11.30;69.40